createdAt,value
2023-05-22T00:00:00.414Z,19.35
2023-05-22T00:03:04.989Z,19.22
2023-05-22T00:06:12.205Z,19.18
2023-05-22T00:09:15.338Z,19.14
2023-05-22T00:12:18.182Z,19.08
2023-05-22T00:15:20.905Z,19.02
2023-05-22T00:18:25.574Z,19.00
2023-05-22T00:21:34.598Z,18.99
2023-05-22T00:24:37.322Z,18.95
2023-05-22T00:27:39.918Z,18.92
2023-05-22T00:30:42.710Z,18.84
2023-05-22T00:33:45.345Z,18.77
2023-05-22T00:36:48.061Z,18.72
2023-05-22T00:39:50.896Z,18.68
2023-05-22T00:42:53.981Z,18.61
2023-05-22T00:45:56.897Z,18.58
2023-05-22T00:48:59.534Z,18.59
2023-05-22T00:52:02.954Z,18.55
2023-05-22T00:55:06.409Z,18.52
2023-05-22T00:58:13.914Z,18.52
2023-05-22T01:01:18.055Z,18.51
2023-05-22T01:04:21.050Z,18.45
2023-05-22T01:07:24.384Z,18.43
2023-05-22T01:10:29.083Z,18.38
2023-05-22T01:13:38.734Z,18.34
2023-05-22T01:17:00.167Z,18.30
2023-05-22T01:20:24.551Z,18.33
2023-05-22T01:23:49.737Z,18.30
2023-05-22T01:27:14.815Z,18.25
2023-05-22T01:30:45.150Z,18.18
2023-05-22T01:34:00.732Z,18.05
2023-05-22T01:37:05.236Z,17.97
2023-05-22T01:40:09.159Z,17.97
2023-05-22T01:43:13.719Z,17.94
2023-05-22T01:46:16.410Z,17.91
2023-05-22T01:49:19.263Z,17.86
2023-05-22T01:52:41.676Z,17.90
2023-05-22T01:56:05.501Z,17.98
2023-05-22T01:59:18.368Z,17.97
2023-05-22T02:02:23.665Z,17.93
2023-05-22T02:05:29.577Z,17.92
2023-05-22T02:08:33.723Z,17.82
2023-05-22T02:11:39.490Z,17.68
2023-05-22T02:14:43.059Z,17.65
2023-05-22T02:17:46.488Z,17.66
2023-05-22T02:20:49.139Z,17.68
2023-05-22T02:23:51.755Z,17.73
2023-05-22T02:26:54.308Z,17.67
2023-05-22T02:29:56.889Z,17.62
2023-05-22T02:33:00.452Z,17.62
2023-05-22T02:36:03.330Z,17.62
2023-05-22T02:39:05.938Z,17.61
2023-05-22T02:42:08.656Z,17.48
2023-05-22T02:45:11.484Z,17.45
2023-05-22T02:48:14.153Z,17.43
2023-05-22T02:51:16.793Z,17.36
2023-05-22T02:54:19.446Z,17.28
2023-05-22T02:57:22.034Z,17.24
2023-05-22T03:00:25.119Z,17.25
2023-05-22T03:03:29.623Z,17.24
2023-05-22T03:06:32.405Z,17.20
2023-05-22T03:09:35.079Z,17.22
2023-05-22T03:12:37.923Z,17.22
2023-05-22T03:15:40.617Z,17.17
2023-05-22T03:18:43.188Z,17.11
2023-05-22T03:21:46.008Z,17.09
2023-05-22T03:24:48.603Z,17.10
2023-05-22T03:27:51.244Z,17.08
2023-05-22T03:30:54.060Z,17.08
2023-05-22T03:33:56.708Z,17.00
2023-05-22T03:36:59.375Z,17.00
2023-05-22T03:40:03.958Z,16.97
2023-05-22T03:43:06.648Z,16.90
2023-05-22T03:46:10.813Z,16.92
2023-05-22T03:49:13.526Z,16.94
2023-05-22T03:52:16.132Z,17.00
2023-05-22T03:55:18.724Z,17.04
2023-05-22T03:58:21.321Z,17.05
2023-05-22T04:01:23.955Z,17.04
2023-05-22T04:04:28.238Z,17.04
2023-05-22T04:07:32.661Z,16.94
2023-05-22T04:10:37.621Z,16.93
2023-05-22T04:13:40.490Z,16.99
2023-05-22T04:16:43.122Z,16.96
2023-05-22T04:19:46.353Z,16.99
2023-05-22T04:22:49.089Z,16.93
2023-05-22T04:25:51.772Z,16.85
2023-05-22T04:28:54.686Z,16.86
2023-05-22T04:31:57.331Z,16.90
2023-05-22T04:35:06.966Z,16.98
2023-05-22T04:38:09.698Z,16.90
2023-05-22T04:41:13.641Z,16.87
2023-05-22T04:44:17.024Z,16.87
2023-05-22T04:47:19.831Z,16.90
2023-05-22T04:50:24.066Z,16.90
2023-05-22T04:53:27.677Z,16.87
2023-05-22T04:56:36.432Z,16.89
2023-05-22T04:59:41.074Z,16.93
2023-05-22T05:02:43.843Z,16.99
2023-05-22T05:05:47.868Z,17.05
2023-05-22T05:08:50.590Z,17.04
2023-05-22T05:11:55.106Z,17.06
2023-05-22T05:14:57.776Z,17.06
2023-05-22T05:18:00.430Z,17.04
2023-05-22T05:21:03.215Z,17.06
2023-05-22T05:24:06.490Z,17.14
2023-05-22T05:27:09.034Z,17.24
2023-05-22T05:30:15.812Z,17.36
2023-05-22T05:33:20.042Z,17.40
2023-05-22T05:36:24.390Z,17.36
2023-05-22T05:39:27.075Z,17.33
2023-05-22T05:42:29.712Z,17.37
2023-05-22T05:45:32.294Z,17.43
2023-05-22T05:48:34.973Z,17.56
2023-05-22T05:51:38.474Z,17.63
2023-05-22T05:54:46.676Z,17.68
2023-05-22T05:57:49.258Z,17.74
2023-05-22T06:00:52.041Z,17.74
2023-05-22T06:03:57.999Z,17.76
2023-05-22T06:07:02.201Z,17.73
2023-05-22T06:10:05.857Z,17.72
2023-05-22T06:13:08.427Z,17.73
2023-05-22T06:16:11.046Z,17.76
2023-05-22T06:19:14.790Z,17.78
2023-05-22T06:22:17.464Z,17.79
2023-05-22T06:25:20.503Z,17.83
2023-05-22T06:28:23.098Z,17.87
2023-05-22T06:31:26.051Z,17.95
2023-05-22T06:34:29.914Z,18.01
2023-05-22T06:37:35.809Z,18.07
2023-05-22T06:40:38.701Z,18.13
2023-05-22T06:43:41.576Z,18.20
2023-05-22T06:46:44.241Z,18.27
2023-05-22T06:49:46.946Z,18.34
2023-05-22T06:52:49.616Z,18.39
2023-05-22T06:55:52.274Z,18.46
2023-05-22T06:58:54.879Z,18.53
2023-05-22T07:01:57.515Z,18.59
2023-05-22T07:05:00.105Z,18.64
2023-05-22T07:08:02.997Z,18.70
2023-05-22T07:11:07.908Z,18.76
2023-05-22T07:14:12.599Z,18.83
2023-05-22T07:17:15.533Z,18.91
2023-05-22T07:20:18.370Z,18.97
2023-05-22T07:23:21.114Z,19.02
2023-05-22T07:26:23.907Z,19.08
2023-05-22T07:29:26.811Z,19.14
2023-05-22T07:32:29.558Z,19.20
2023-05-22T07:35:32.495Z,19.26
2023-05-22T07:38:35.101Z,19.33
2023-05-22T07:41:37.766Z,19.38
2023-05-22T07:44:41.049Z,19.42
2023-05-22T07:47:43.751Z,19.46
2023-05-22T07:50:46.467Z,19.53
2023-05-22T07:53:49.132Z,19.58
2023-05-22T07:56:52.470Z,19.61
2023-05-22T07:59:55.743Z,19.63
2023-05-22T08:02:58.435Z,19.69
2023-05-22T08:06:01.338Z,19.72
2023-05-22T08:09:05.021Z,19.75
2023-05-22T08:12:08.052Z,19.80
2023-05-22T08:15:11.531Z,19.83
2023-05-22T08:18:14.801Z,19.86
2023-05-22T08:21:17.439Z,19.89
2023-05-22T08:24:20.072Z,19.93
2023-05-22T08:27:22.779Z,19.94
2023-05-22T08:30:25.471Z,19.97
2023-05-22T08:33:28.248Z,19.97
2023-05-22T08:36:31.878Z,19.97
2023-05-22T08:39:34.481Z,19.99
2023-05-22T08:42:37.671Z,20.03
2023-05-22T08:45:42.737Z,20.07
2023-05-22T08:48:47.426Z,20.12
2023-05-22T08:51:56.445Z,20.17
2023-05-22T08:55:00.859Z,20.20
2023-05-22T08:58:04.413Z,20.24
2023-05-22T09:01:08.823Z,20.29
2023-05-22T09:04:11.837Z,20.35
2023-05-22T09:07:14.616Z,20.39
2023-05-22T09:10:17.255Z,20.42
2023-05-22T09:13:32.274Z,20.47
2023-05-22T09:16:45.121Z,20.52
2023-05-22T09:19:48.044Z,20.56
2023-05-22T09:22:50.775Z,20.64
2023-05-22T09:25:58.312Z,20.67
2023-05-22T09:29:01.812Z,20.69
2023-05-22T09:32:13.885Z,20.72
2023-05-22T09:35:16.707Z,20.70
2023-05-22T09:38:21.667Z,20.71
2023-05-22T09:41:24.655Z,20.70
2023-05-22T09:44:27.234Z,20.69
2023-05-22T09:47:30.213Z,20.68
2023-05-22T09:50:33.051Z,20.67
2023-05-22T09:53:37.018Z,20.64
2023-05-22T09:56:40.985Z,20.66
2023-05-22T09:59:48.866Z,20.68
2023-05-22T10:02:59.331Z,20.71
2023-05-22T10:06:02.856Z,20.75
2023-05-22T10:09:13.379Z,20.80
2023-05-22T10:12:20.850Z,20.86
2023-05-22T10:15:23.867Z,20.93
2023-05-22T10:18:27.104Z,21.02
2023-05-22T10:21:37.152Z,21.08
2023-05-22T10:24:41.432Z,21.11
2023-05-22T10:27:44.915Z,21.16
2023-05-22T10:31:26.676Z,21.22
2023-05-22T10:34:39.040Z,21.27
2023-05-22T10:37:52.307Z,21.31
2023-05-22T10:40:55.953Z,21.38
2023-05-22T10:43:58.725Z,21.44
2023-05-22T10:47:10.397Z,21.49
2023-05-22T10:50:13.298Z,21.54
2023-05-22T10:53:31.423Z,21.57
2023-05-22T10:56:35.641Z,21.58
2023-05-22T10:59:38.367Z,21.59
2023-05-22T11:02:43.701Z,21.63
2023-05-22T11:05:52.991Z,21.67
2023-05-22T11:08:57.702Z,21.71
2023-05-22T11:12:17.832Z,21.75
2023-05-22T11:15:31.931Z,21.79
2023-05-22T11:18:34.735Z,21.82
2023-05-22T11:21:47.683Z,21.87
2023-05-22T11:24:50.751Z,21.95
2023-05-22T11:27:54.752Z,22.06
2023-05-22T11:30:57.526Z,22.15
2023-05-22T11:34:00.711Z,22.20
2023-05-22T11:37:03.857Z,22.24
2023-05-22T11:40:07.779Z,22.33
2023-05-22T11:43:11.137Z,22.38
2023-05-22T11:46:15.163Z,22.42
2023-05-22T11:49:18.344Z,22.49
2023-05-22T11:52:21.195Z,22.53
2023-05-22T11:55:24.651Z,22.57
2023-05-22T11:58:28.825Z,22.63
2023-05-22T12:01:32.407Z,22.70
2023-05-22T12:04:35.073Z,22.78
2023-05-22T12:07:37.892Z,22.81
2023-05-22T12:10:47.731Z,22.89
2023-05-22T12:14:00.900Z,22.94
2023-05-22T12:17:04.811Z,22.97
2023-05-22T12:20:07.917Z,23.01
2023-05-22T12:23:26.939Z,23.05
2023-05-22T12:26:29.882Z,23.07
2023-05-22T12:29:34.855Z,23.11
2023-05-22T12:32:40.027Z,23.12
2023-05-22T12:35:42.693Z,23.10
2023-05-22T12:38:45.795Z,23.15
2023-05-22T12:41:48.690Z,23.18
2023-05-22T12:44:54.647Z,23.21
2023-05-22T12:47:57.313Z,23.26
2023-05-22T12:51:00.312Z,23.30
2023-05-22T12:54:03.944Z,23.38
2023-05-22T12:57:07.005Z,23.47
2023-05-22T13:00:10.364Z,23.55
2023-05-22T13:03:13.362Z,23.64
2023-05-22T13:06:16.138Z,23.72
2023-05-22T13:09:20.196Z,23.79
2023-05-22T13:12:23.801Z,23.86
2023-05-22T13:15:29.759Z,23.91
2023-05-22T13:18:32.484Z,23.98
2023-05-22T13:21:35.460Z,24.04
2023-05-22T13:24:38.225Z,24.08
2023-05-22T13:27:40.852Z,24.13
2023-05-22T13:30:43.458Z,24.18
2023-05-22T13:33:46.967Z,24.24
2023-05-22T13:36:49.746Z,24.29
2023-05-22T13:39:52.580Z,24.32
2023-05-22T13:42:55.372Z,24.29
2023-05-22T13:45:58.132Z,24.41
2023-05-22T13:49:00.879Z,24.49
2023-05-22T13:52:06.420Z,24.62
2023-05-22T13:55:09.172Z,24.73
2023-05-22T13:58:11.874Z,24.92
2023-05-22T14:01:14.552Z,25.13
2023-05-22T14:04:17.397Z,25.32
2023-05-22T14:07:20.087Z,25.42
2023-05-22T14:10:22.816Z,25.41
2023-05-22T14:13:25.665Z,25.31
2023-05-22T14:16:28.275Z,25.19
2023-05-22T14:19:31.226Z,25.08
2023-05-22T14:22:41.428Z,24.90
2023-05-22T14:25:51.187Z,24.72
2023-05-22T14:28:54.182Z,24.55
2023-05-22T14:32:07.640Z,24.38
2023-05-22T14:35:10.252Z,24.23
2023-05-22T14:38:12.859Z,24.14
2023-05-22T14:41:16.441Z,24.07
2023-05-22T14:44:19.667Z,24.08
2023-05-22T14:47:22.369Z,24.07
2023-05-22T14:50:24.965Z,24.07
2023-05-22T14:53:27.764Z,24.06
2023-05-22T14:56:30.478Z,24.03
2023-05-22T14:59:33.939Z,24.02
2023-05-22T15:02:37.658Z,24.04
2023-05-22T15:05:40.633Z,24.10
2023-05-22T15:08:43.553Z,24.19
2023-05-22T15:11:49.098Z,24.33
2023-05-22T15:14:51.709Z,24.45
2023-05-22T15:17:54.329Z,24.51
2023-05-22T15:20:57.004Z,24.55
2023-05-22T15:23:59.655Z,24.63
2023-05-22T15:27:02.269Z,24.77
2023-05-22T15:30:05.863Z,24.91
2023-05-22T15:33:09.031Z,25.03
2023-05-22T15:36:11.824Z,25.15
2023-05-22T15:39:14.793Z,25.27
2023-05-22T15:42:17.568Z,25.33
2023-05-22T15:45:21.068Z,25.36
2023-05-22T15:48:23.686Z,25.36
2023-05-22T15:51:26.284Z,25.34
2023-05-22T15:54:28.847Z,25.34
2023-05-22T15:57:31.517Z,25.36
2023-05-22T16:00:38.790Z,25.41
2023-05-22T16:03:41.696Z,25.46
2023-05-22T16:06:44.581Z,25.50
2023-05-22T16:09:47.152Z,25.53
2023-05-22T16:12:49.718Z,25.54
2023-05-22T16:15:52.431Z,25.57
2023-05-22T16:18:55.105Z,25.61
2023-05-22T16:21:57.733Z,25.60
2023-05-22T16:25:00.321Z,25.59
2023-05-22T16:28:03.063Z,25.60
2023-05-22T16:31:06.429Z,25.59
2023-05-22T16:34:09.080Z,25.59
2023-05-22T16:37:11.726Z,25.58
2023-05-22T16:40:14.807Z,25.56
2023-05-22T16:43:20.707Z,25.55
2023-05-22T16:46:24.275Z,25.58
2023-05-22T16:49:27.094Z,25.60
2023-05-22T16:52:30.742Z,25.55
2023-05-22T16:55:33.511Z,25.51
2023-05-22T16:58:36.430Z,25.48
2023-05-22T17:01:39.453Z,25.47
2023-05-22T17:04:42.579Z,25.46
2023-05-22T17:07:45.299Z,25.45
2023-05-22T17:10:47.972Z,25.44
2023-05-22T17:13:52.670Z,25.39
2023-05-22T17:16:56.338Z,25.30
2023-05-22T17:19:59.064Z,25.24
2023-05-22T17:23:01.679Z,25.14
2023-05-22T17:26:05.289Z,25.03
2023-05-22T17:29:08.046Z,24.96
2023-05-22T17:32:11.861Z,24.91
2023-05-22T17:35:18.713Z,24.85
2023-05-22T17:38:21.972Z,24.75
2023-05-22T17:41:24.881Z,24.75
2023-05-22T17:44:27.637Z,24.71
2023-05-22T17:47:30.451Z,24.65
2023-05-22T17:50:33.372Z,24.61
2023-05-22T17:53:37.821Z,24.56
2023-05-22T17:56:42.508Z,24.48
2023-05-22T17:59:45.092Z,24.51
2023-05-22T18:02:47.920Z,24.74
2023-05-22T18:05:51.144Z,24.92
2023-05-22T18:08:53.916Z,25.01
2023-05-22T18:11:56.662Z,25.04
2023-05-22T18:14:59.915Z,25.04
2023-05-22T18:18:03.417Z,24.92
2023-05-22T18:21:08.621Z,24.78
2023-05-22T18:24:13.248Z,24.70
2023-05-22T18:27:15.877Z,24.61
2023-05-22T18:30:19.280Z,24.49
2023-05-22T18:33:24.694Z,24.33
2023-05-22T18:36:27.596Z,24.16
2023-05-22T18:39:30.664Z,24.08
2023-05-22T18:42:33.265Z,24.00
2023-05-22T18:45:37.093Z,23.87
2023-05-22T18:48:41.139Z,23.68
2023-05-22T18:51:44.188Z,23.52
2023-05-22T18:54:47.033Z,23.45
2023-05-22T18:57:49.702Z,23.44
2023-05-22T19:00:55.545Z,23.44
2023-05-22T19:03:58.304Z,23.32
2023-05-22T19:07:00.950Z,23.27
2023-05-22T19:10:06.290Z,23.18
2023-05-22T19:13:10.594Z,23.09
2023-05-22T19:16:14.055Z,23.05
2023-05-22T19:19:16.923Z,23.00
2023-05-22T19:22:20.126Z,23.00
2023-05-22T19:25:22.740Z,23.03
2023-05-22T19:28:26.280Z,23.03
2023-05-22T19:31:29.839Z,23.00
2023-05-22T19:34:33.142Z,22.94
2023-05-22T19:37:35.826Z,22.91
2023-05-22T19:40:38.707Z,22.89
2023-05-22T19:43:41.797Z,22.86
2023-05-22T19:46:44.667Z,22.78
2023-05-22T19:49:47.331Z,22.70
2023-05-22T19:52:51.599Z,22.60
2023-05-22T19:55:54.270Z,22.58
2023-05-22T19:58:57.469Z,22.57
2023-05-22T20:02:00.420Z,22.56
2023-05-22T20:05:04.457Z,22.57
2023-05-22T20:08:07.719Z,22.54
2023-05-22T20:11:10.480Z,22.49
2023-05-22T20:14:13.730Z,22.43
2023-05-22T20:17:17.003Z,22.38
2023-05-22T20:20:20.657Z,22.29
2023-05-22T20:23:23.462Z,22.25
2023-05-22T20:26:26.331Z,22.18
2023-05-22T20:29:28.939Z,22.13
2023-05-22T20:32:32.454Z,22.16
2023-05-22T20:35:35.615Z,22.08
2023-05-22T20:38:38.352Z,21.82
2023-05-22T20:41:41.019Z,21.59
2023-05-22T20:44:44.226Z,21.39
2023-05-22T20:47:46.875Z,21.22
2023-05-22T20:50:50.765Z,21.04
2023-05-22T20:53:54.142Z,20.93
2023-05-22T20:56:56.878Z,20.80
2023-05-22T20:59:59.564Z,20.69
2023-05-22T21:03:02.361Z,20.66
2023-05-22T21:06:05.853Z,20.58
2023-05-22T21:09:08.576Z,20.61
2023-05-22T21:12:11.429Z,20.57
2023-05-22T21:15:14.426Z,20.55
2023-05-22T21:18:17.371Z,20.52
2023-05-22T21:21:22.905Z,20.45
2023-05-22T21:24:25.678Z,20.41
2023-05-22T21:27:28.567Z,20.37
2023-05-22T21:30:31.884Z,20.31
2023-05-22T21:36:37.667Z,20.20
2023-05-22T21:39:40.950Z,20.17
2023-05-22T21:42:46.516Z,20.11
2023-05-22T21:45:50.265Z,20.06
2023-05-22T21:48:53.915Z,20.00
2023-05-22T21:51:56.754Z,19.94
2023-05-22T21:55:01.466Z,19.86
2023-05-22T21:58:04.234Z,19.86
2023-05-22T22:01:06.928Z,19.82
2023-05-22T22:04:09.781Z,19.78
2023-05-22T22:07:13.401Z,19.73
2023-05-22T22:10:16.125Z,19.68
2023-05-22T22:13:18.783Z,19.65
2023-05-22T22:16:22.499Z,19.63
2023-05-22T22:19:26.008Z,19.60
2023-05-22T22:22:28.892Z,19.58
2023-05-22T22:25:31.766Z,19.57
2023-05-22T22:28:34.466Z,19.53
2023-05-22T22:31:37.149Z,19.52
2023-05-22T22:34:40.002Z,19.49
2023-05-22T22:37:43.164Z,19.48
2023-05-22T22:40:46.020Z,19.46
2023-05-22T22:43:48.711Z,19.43
2023-05-22T22:46:51.972Z,19.42
2023-05-22T22:49:57.245Z,19.36
2023-05-22T22:52:59.922Z,19.33
2023-05-22T22:56:02.926Z,19.32
2023-05-22T22:59:05.712Z,19.29
2023-05-22T23:02:09.280Z,19.26
2023-05-22T23:05:12.389Z,19.22
2023-05-22T23:08:15.739Z,19.19
2023-05-22T23:11:18.407Z,19.14
2023-05-22T23:14:21.071Z,19.14
2023-05-22T23:17:23.698Z,19.14
2023-05-22T23:20:26.309Z,19.13
2023-05-22T23:23:29.000Z,19.09
2023-05-22T23:26:32.647Z,19.06
2023-05-22T23:29:35.532Z,19.04
2023-05-22T23:32:38.341Z,19.04
2023-05-22T23:35:41.360Z,19.05
2023-05-22T23:38:46.505Z,19.06
2023-05-22T23:41:49.778Z,19.05
2023-05-22T23:44:52.632Z,19.02
2023-05-22T23:47:55.302Z,19.00
2023-05-22T23:50:58.067Z,18.98
2023-05-22T23:54:01.351Z,18.96
2023-05-22T23:57:04.803Z,18.95
